Observation data for Tulia on 07/11/2018      Previous  Date       Current Mesonet Observations  Soil Data  Daily Summary Page  Observations in Plain Language
KTIS 110500Z 17005KT 22/17 A3016 RMK A01 T02160171  RH  077%=      5-min Rain = 0
KTIS 110505Z 17005KT 22/17 A3016 RMK A01 T02170172  RH  078%=      5-min Rain = 0
KTIS 110510Z 17005KT 22/17 A3016 RMK A01 T02170173  RH  078%=      5-min Rain = 0
KTIS 110515Z 17006KT 22/17 A3016 RMK A01 T02170172  RH  077%=      5-min Rain = 0
KTIS 110520Z 17006KT 22/17 A3016 RMK A01 T02170173  RH  078%=      5-min Rain = 0
KTIS 110525Z 17007KT 22/17 A3016 RMK A01 T02170172  RH  077%=      5-min Rain = 0
KTIS 110530Z 17007KT 22/17 A3016 RMK A01 T02180172  RH  077%=      5-min Rain = 0
KTIS 110535Z 17008KT 22/17 A3016 RMK A01 T02180172  RH  077%=      5-min Rain = 0
KTIS 110540Z 17007KT 22/17 A3016 RMK A01 T02180172  RH  077%=      5-min Rain = 0
KTIS 110545Z 17007KT 22/17 A3016 RMK A01 T02180172  RH  077%=      5-min Rain = 0
KTIS 110550Z 17007KT 22/17 A3016 RMK A01 T02170172  RH  077%=      5-min Rain = 0
KTIS 110555Z 17006KT 22/17 A3016 RMK A01 T02150172  RH  078%=      5-min Rain = 0
KTIS 110600Z 16006KT 21/17 A3016 RMK A01 T02130172  RH  079%=      5-min Rain = 0
KTIS 110605Z 16005KT 21/17 A3016 RMK A01 T02110171  RH  080%=      5-min Rain = 0
KTIS 110610Z 16005KT 21/17 A3016 RMK A01 T02090170  RH  080%=      5-min Rain = 0
KTIS 110615Z 16003KT 21/17 A3016 RMK A01 T02070170  RH  081%=      5-min Rain = 0
KTIS 110620Z 16002KT 21/17 A3016 RMK A01 T02060170  RH  082%=      5-min Rain = 0
KTIS 110625Z 13003KT 20/17 A3016 RMK A01 T02040168  RH  082%=      5-min Rain = 0
KTIS 110630Z 13003KT 20/17 A3016 RMK A01 T02020169  RH  083%=      5-min Rain = 0
KTIS 110635Z 13003KT 20/17 A3016 RMK A01 T02020169  RH  083%=      5-min Rain = 0
KTIS 110640Z 13004KT 20/17 A3016 RMK A01 T02010169  RH  084%=      5-min Rain = 0
KTIS 110645Z 13004KT 20/17 A3016 RMK A01 T01990169  RH  085%=      5-min Rain = 0
KTIS 110650Z 13004KT 20/17 A3016 RMK A01 T01980168  RH  085%=      5-min Rain = 0
KTIS 110655Z 13003KT 20/17 A3016 RMK A01 T01980169  RH  085%=      5-min Rain = 0
KTIS 110700Z 14003KT 20/17 A3017 RMK A01 T01980169  RH  085%=      5-min Rain = 0
KTIS 110705Z 14003KT 20/17 A3017 RMK A01 T01980168  RH  085%=      5-min Rain = 0
KTIS 110710Z 14003KT 20/17 A3017 RMK A01 T01970169  RH  085%=      5-min Rain = 0
KTIS 110715Z 15003KT 20/17 A3017 RMK A01 T01970168  RH  085%=      5-min Rain = 0
KTIS 110720Z 17003KT 20/17 A3016 RMK A01 T01970168  RH  086%=      5-min Rain = 0
KTIS 110725Z 18004KT 20/16 A3016 RMK A01 T01960164  RH  083%=      5-min Rain = 0
KTIS 110730Z 19004KT 20/16 A3016 RMK A01 T01970162  RH  082%=      5-min Rain = 0
KTIS 110735Z 20005KT 20/16 A3016 RMK A01 T01980160  RH  081%=      5-min Rain = 0
KTIS 110740Z 20005KT 20/16 A3016 RMK A01 T01980161  RH  081%=      5-min Rain = 0
KTIS 110745Z 19005KT 20/16 A3016 RMK A01 T02000161  RH  080%=      5-min Rain = 0
KTIS 110750Z 19005KT 20/16 A3016 RMK A01 T02020163  RH  080%=      5-min Rain = 0
KTIS 110755Z 19005KT 20/16 A3017 RMK A01 T02040163  RH  079%=      5-min Rain = 0
KTIS 110800Z 20005KT 20/16 A3017 RMK A01 T02030162  RH  079%=      5-min Rain = 0
KTIS 110805Z 20004KT 20/16 A3017 RMK A01 T02020163  RH  080%=      5-min Rain = 0
KTIS 110810Z 21004KT 20/16 A3016 RMK A01 T02010164  RH  081%=      5-min Rain = 0
KTIS 110815Z 21005KT 20/16 A3016 RMK A01 T02010163  RH  081%=      5-min Rain = 0
KTIS 110820Z 21006KT 20/16 A3016 RMK A01 T02020164  RH  081%=      5-min Rain = 0
KTIS 110825Z 21006KT 20/17 A3016 RMK A01 T02040166  RH  081%=      5-min Rain = 0
KTIS 110830Z 21007KT 21/17 A3015 RMK A01 T02060167  RH  080%=      5-min Rain = 0
KTIS 110835Z 22006KT 21/17 A3015 RMK A01 T02070167  RH  080%=      5-min Rain = 0
KTIS 110840Z 22006KT 21/17 A3015 RMK A01 T02060167  RH  080%=      5-min Rain = 0
KTIS 110845Z 22006KT 21/17 A3015 RMK A01 T02050167  RH  081%=      5-min Rain = 0
KTIS 110850Z 21006KT 21/17 A3015 RMK A01 T02050167  RH  081%=      5-min Rain = 0
KTIS 110855Z 21005KT 21/17 A3016 RMK A01 T02050166  RH  080%=      5-min Rain = 0
KTIS 110900Z 21005KT 20/17 A3016 RMK A01 T02040165  RH  080%=      5-min Rain = 0
KTIS 110905Z 21006KT 21/17 A3016 RMK A01 T02050165  RH  080%=      5-min Rain = 0
KTIS 110910Z 21005KT 20/17 A3016 RMK A01 T02040165  RH  080%=      5-min Rain = 0
KTIS 110915Z 21005KT 20/17 A3016 RMK A01 T02010165  RH  081%=      5-min Rain = 0
KTIS 110920Z 21006KT 20/17 A3015 RMK A01 T02010165  RH  082%=      5-min Rain = 0
KTIS 110925Z 21005KT 20/17 A3015 RMK A01 T02010165  RH  082%=      5-min Rain = 0
KTIS 110930Z 20004KT 20/16 A3015 RMK A01 T01990164  RH  082%=      5-min Rain = 0
KTIS 110935Z 18004KT 20/16 A3015 RMK A01 T01970164  RH  083%=      5-min Rain = 0
KTIS 110940Z 18005KT 20/16 A3016 RMK A01 T01960164  RH  084%=      5-min Rain = 0
KTIS 110945Z 18005KT 19/16 A3016 RMK A01 T01940163  RH  084%=      5-min Rain = 0
KTIS 110950Z 17004KT 19/16 A3015 RMK A01 T01930163  RH  085%=      5-min Rain = 0
KTIS 110955Z 17005KT 19/17 A3016 RMK A01 T01920166  RH  087%=      5-min Rain = 0
KTIS 111000Z 17006KT 19/17 A3015 RMK A01 T01910167  RH  088%=      5-min Rain = 0
KTIS 111005Z 17006KT 19/17 A3015 RMK A01 T01900168  RH  089%=      5-min Rain = 0
KTIS 111010Z 17006KT 19/17 A3015 RMK A01 T01900168  RH  089%=      5-min Rain = 0
KTIS 111015Z 18005KT 19/17 A3015 RMK A01 T01900167  RH  088%=      5-min Rain = 0
KTIS 111020Z 19005KT 19/16 A3015 RMK A01 T01910164  RH  086%=      5-min Rain = 0
KTIS 111025Z 20006KT 19/16 A3014 RMK A01 T01910163  RH  086%=      5-min Rain = 0
KTIS 111030Z 20006KT 19/16 A3014 RMK A01 T01920164  RH  086%=      5-min Rain = 0
KTIS 111035Z 20006KT 19/17 A3014 RMK A01 T01910165  RH  087%=      5-min Rain = 0
KTIS 111040Z 20007KT 19/17 A3014 RMK A01 T01920165  RH  087%=      5-min Rain = 0
KTIS 111045Z 20007KT 19/17 A3014 RMK A01 T01930166  RH  086%=      5-min Rain = 0
KTIS 111050Z 20007KT 19/17 A3014 RMK A01 T01940167  RH  086%=      5-min Rain = 0
KTIS 111055Z 19007KT 20/17 A3014 RMK A01 T01950167  RH  086%=      5-min Rain = 0
KTIS 111100Z 19008KT 20/17 A3014 RMK A01 T01960168  RH  085%=      5-min Rain = 0
KTIS 111105Z 19008KT 20/17 A3014 RMK A01 T01980167  RH  085%=      5-min Rain = 0
KTIS 111110Z 19007KT 20/17 A3014 RMK A01 T01980168  RH  085%=      5-min Rain = 0
KTIS 111115Z 20007KT 20/17 A3015 RMK A01 T01980167  RH  085%=      5-min Rain = 0
KTIS 111120Z 20007KT 20/17 A3015 RMK A01 T01970167  RH  085%=      5-min Rain = 0
KTIS 111125Z 21007KT 20/17 A3015 RMK A01 T01960167  RH  085%=      5-min Rain = 0
KTIS 111130Z 21007KT 20/17 A3014 RMK A01 T01970167  RH  085%=      5-min Rain = 0
KTIS 111135Z 21007KT 20/17 A3015 RMK A01 T01970168  RH  085%=      5-min Rain = 0
KTIS 111140Z 21007KT 20/17 A3015 RMK A01 T01980168  RH  085%=      5-min Rain = 0
KTIS 111145Z 21007KT 20/17 A3015 RMK A01 T01980169  RH  085%=      5-min Rain = 0
KTIS 111150Z 21007KT 20/17 A3015 RMK A01 T01990169  RH  085%=      5-min Rain = 0
KTIS 111155Z 21007KT 20/17 A3015 RMK A01 T01990169  RH  085%=      5-min Rain = 0
KTIS 111200Z 21007KT 20/17 A3015 RMK A01 T01990170  RH  085%=      5-min Rain = 0
KTIS 111205Z 21006KT 20/17 A3015 RMK A01 T01990170  RH  085%=      5-min Rain = 0
KTIS 111210Z 21006KT 20/17 A3015 RMK A01 T02000170  RH  085%=      5-min Rain = 0
KTIS 111215Z 22005KT 20/17 A3015 RMK A01 T02010171  RH  085%=      5-min Rain = 0
KTIS 111220Z 21005KT 20/17 A3015 RMK A01 T02010171  RH  085%=      5-min Rain = 0
KTIS 111225Z 21006KT 20/17 A3015 RMK A01 T02030172  RH  084%=      5-min Rain = 0
KTIS 111230Z 21006KT 21/17 A3015 RMK A01 T02050173  RH  084%=      5-min Rain = 0
KTIS 111235Z 21005KT 21/17 A3016 RMK A01 T02070174  RH  083%=      5-min Rain = 0
KTIS 111240Z 21004KT 21/18 A3016 RMK A01 T02090175  RH  083%=      5-min Rain = 0
KTIS 111245Z 21006KT 21/18 A3016 RMK A01 T02120176  RH  082%=      5-min Rain = 0
KTIS 111250Z 21006KT 22/18 A3016 RMK A01 T02150177  RH  081%=      5-min Rain = 0
KTIS 111255Z 21007KT 22/18 A3016 RMK A01 T02180178  RH  080%=      5-min Rain = 0
KTIS 111300Z 20008KT 22/18 A3016 RMK A01 T02190178  RH  080%=      5-min Rain = 0
KTIS 111305Z 20007KT 22/18 A3016 RMK A01 T02200179  RH  080%=      5-min Rain = 0
KTIS 111310Z 20008KT 22/18 A3016 RMK A01 T02210179  RH  079%=      5-min Rain = 0
KTIS 111315Z 20007KT 22/18 A3016 RMK A01 T02210180  RH  079%=      5-min Rain = 0
KTIS 111320Z 20007KT 22/18 A3016 RMK A01 T02230179  RH  078%=      5-min Rain = 0
KTIS 111325Z 20007KT 23/18 A3016 RMK A01 T02310180  RH  075%=      5-min Rain = 0
KTIS 111330Z 21008KT 24/18 A3016 RMK A01 T02380180  RH  072%=      5-min Rain = 0
KTIS 111335Z 21008KT 24/18 A3016 RMK A01 T02420179  RH  070%=      5-min Rain = 0
KTIS 111340Z 19009KT 25/18 A3016 RMK A01 T02450178  RH  068%=      5-min Rain = 0
KTIS 111345Z 19011KT 25/18 A3016 RMK A01 T02480175  RH  066%=      5-min Rain = 0
KTIS 111350Z 20010KT 25/17 A3016 RMK A01 T02510173  RH  064%=      5-min Rain = 0
KTIS 111355Z 19010KT 25/17 A3017 RMK A01 T02530170  RH  061%=      5-min Rain = 0
KTIS 111400Z 19013KT 26/16 A3017 RMK A01 T02550163  RH  058%=      5-min Rain = 0
KTIS 111405Z 19011KT 25/17 A3017 RMK A01 T02540167  RH  060%=      5-min Rain = 0
KTIS 111410Z 19011KT 25/17 A3017 RMK A01 T02540168  RH  060%=      5-min Rain = 0
KTIS 111415Z 19012KT 25/16 A3017 RMK A01 T02530164  RH  059%=      5-min Rain = 0
KTIS 111420Z 19012KT 25/16 A3017 RMK A01 T02510161  RH  059%=      5-min Rain = 0
KTIS 111425Z 20012KT 25/16 A3017 RMK A01 T02500160  RH  059%=      5-min Rain = 0
KTIS 111430Z 20012KT 25/16 A3017 RMK A01 T02510162  RH  059%=      5-min Rain = 0
KTIS 111435Z 20011G16KT 25/16 A3017 RMK A01 T02530164  RH  059%=      5-min Rain = 0
KTIS 111440Z 20012KT 25/16 A3017 RMK A01 T02540163  RH  058%=      5-min Rain = 0
KTIS 111445Z 19012KT 26/16 A3017 RMK A01 T02560164  RH  058%=      5-min Rain = 0
KTIS 111450Z 19011KT 26/17 A3018 RMK A01 T02580165  RH  058%=      5-min Rain = 0
KTIS 111455Z 19013KT 26/17 A3018 RMK A01 T02610165  RH  057%=      5-min Rain = 0
KTIS 111500Z 20012KT 26/17 A3017 RMK A01 T02600166  RH  057%=      5-min Rain = 0
KTIS 111505Z 19011KT 26/17 A3017 RMK A01 T02630168  RH  057%=      5-min Rain = 0
KTIS 111510Z 19012KT 26/17 A3017 RMK A01 T02640168  RH  057%=      5-min Rain = 0
KTIS 111515Z 19013KT 27/17 A3017 RMK A01 T02650167  RH  056%=      5-min Rain = 0
KTIS 111520Z 19013KT 27/17 A3017 RMK A01 T02660168  RH  056%=      5-min Rain = 0
KTIS 111525Z 18014G19KT 27/17 A3017 RMK A01 T02710166  RH  054%=      5-min Rain = 0
KTIS 111530Z 18015KT 27/17 A3017 RMK A01 T02730165  RH  053%=      5-min Rain = 0
KTIS 111535Z 19013KT 27/16 A3017 RMK A01 T02740164  RH  052%=      5-min Rain = 0
KTIS 111540Z 20012G17KT 27/16 A3017 RMK A01 T02710163  RH  053%=      5-min Rain = 0
KTIS 111545Z 19011KT 27/17 A3017 RMK A01 T02690165  RH  054%=      5-min Rain = 0
KTIS 111550Z 20012KT 27/16 A3017 RMK A01 T02700164  RH  054%=      5-min Rain = 0
KTIS 111555Z 21012G17KT 27/16 A3017 RMK A01 T02730162  RH  052%=      5-min Rain = 0
KTIS 111600Z 20012G17KT 28/17 A3017 RMK A01 T02810165  RH  050%=      5-min Rain = 0
KTIS 111605Z 20014KT 28/16 A3017 RMK A01 T02820162  RH  049%=      5-min Rain = 0
KTIS 111610Z 20013KT 28/17 A3017 RMK A01 T02830165  RH  050%=      5-min Rain = 0
KTIS 111615Z 19013G18KT 29/16 A3017 RMK A01 T02860163  RH  048%=      5-min Rain = 0
KTIS 111620Z 20013KT 28/16 A3017 RMK A01 T02830162  RH  049%=      5-min Rain = 0
KTIS 111625Z 19012G18KT 28/16 A3017 RMK A01 T02820164  RH  050%=      5-min Rain = 0
KTIS 111630Z 19011KT 28/16 A3017 RMK A01 T02800164  RH  050%=      5-min Rain = 0
KTIS 111635Z 19012KT 29/16 A3016 RMK A01 T02870162  RH  048%=      5-min Rain = 0
KTIS 111640Z 19014KT 29/16 A3016 RMK A01 T02900158  RH  046%=      5-min Rain = 0
KTIS 111645Z 19012KT 29/16 A3016 RMK A01 T02920157  RH  045%=      5-min Rain = 0
KTIS 111650Z 20012KT 29/15 A3016 RMK A01 T02930152  RH  043%=      5-min Rain = 0
KTIS 111655Z 19012KT 30/15 A3016 RMK A01 T02970148  RH  041%=      5-min Rain = 0
KTIS 111700Z 20011G16KT 30/15 A3016 RMK A01 T03000148  RH  041%=      5-min Rain = 0
KTIS 111705Z 18012KT 30/15 A3016 RMK A01 T02980150  RH  041%=      5-min Rain = 0
KTIS 111710Z 19011G17KT 30/15 A3016 RMK A01 T03040147  RH  039%=      5-min Rain = 0
KTIS 111715Z 19013G21KT 30/15 A3016 RMK A01 T03030145  RH  039%=      5-min Rain = 0
KTIS 111720Z 20012G20KT 30/15 A3015 RMK A01 T03020145  RH  039%=      5-min Rain = 0
KTIS 111725Z 17011G18KT 30/15 A3015 RMK A01 T03020148  RH  040%=      5-min Rain = 0
KTIS 111730Z 19012G17KT 30/14 A3015 RMK A01 T03030143  RH  039%=      5-min Rain = 0
KTIS 111735Z 19014KT 31/15 A3015 RMK A01 T03080145  RH  038%=      5-min Rain = 0
KTIS 111740Z 19014G20KT 31/14 A3015 RMK A01 T03070139  RH  037%=      5-min Rain = 0
KTIS 111745Z 16014G20KT 31/15 A3015 RMK A01 T03070149  RH  039%=      5-min Rain = 0
KTIS 111750Z 18017G22KT 31/14 A3015 RMK A01 T03080137  RH  036%=      5-min Rain = 0
KTIS 111755Z 18015G20KT 31/14 A3015 RMK A01 T03080143  RH  038%=      5-min Rain = 0
KTIS 111800Z 18013G23KT 31/14 A3014 RMK A01 T03100142  RH  037%=      5-min Rain = 0
KTIS 111805Z 18015G21KT 31/14 A3014 RMK A01 T03120138  RH  035%=      5-min Rain = 0
KTIS 111810Z 19016G21KT 31/14 A3014 RMK A01 T03110141  RH  036%=      5-min Rain = 0
KTIS 111815Z 19016G21KT 31/14 A3014 RMK A01 T03130142  RH  036%=      5-min Rain = 0
KTIS 111820Z 20018G25KT 32/14 A3014 RMK A01 T03150144  RH  036%=      5-min Rain = 0
KTIS 111825Z 20015G21KT 32/14 A3013 RMK A01 T03150144  RH  036%=      5-min Rain = 0
KTIS 111830Z 19015G21KT 32/14 A3013 RMK A01 T03210144  RH  035%=      5-min Rain = 0
KTIS 111835Z 17014G19KT 32/15 A3013 RMK A01 T03200149  RH  036%=      5-min Rain = 0
KTIS 111840Z 19013KT 32/14 A3013 RMK A01 T03170142  RH  035%=      5-min Rain = 0
KTIS 111845Z 18014G19KT 31/14 A3013 RMK A01 T03140144  RH  037%=      5-min Rain = 0
KTIS 111850Z 18015G20KT 31/14 A3012 RMK A01 T03130141  RH  036%=      5-min Rain = 0
KTIS 111855Z 17015G22KT 31/14 A3012 RMK A01 T03140141  RH  036%=      5-min Rain = 0
KTIS 111900Z 18016G23KT 32/14 A3012 RMK A01 T03210135  RH  033%=      5-min Rain = 0
KTIS 111905Z 19016G25KT 32/13 A3012 RMK A01 T03220134  RH  033%=      5-min Rain = 0
KTIS 111910Z 18017G22KT 32/14 A3011 RMK A01 T03220136  RH  033%=      5-min Rain = 0
KTIS 111915Z 18017G25KT 32/13 A3011 RMK A01 T03220134  RH  033%=      5-min Rain = 0
KTIS 111920Z 17014G19KT 32/14 A3011 RMK A01 T03230137  RH  033%=      5-min Rain = 0
KTIS 111925Z 18015G20KT 33/14 A3011 RMK A01 T03270138  RH  033%=      5-min Rain = 0
KTIS 111930Z 18016G21KT 33/14 A3011 RMK A01 T03260136  RH  032%=      5-min Rain = 0
KTIS 111935Z 19016KT 32/14 A3011 RMK A01 T03240135  RH  032%=      5-min Rain = 0
KTIS 111940Z 19014G19KT 32/14 A3011 RMK A01 T03220138  RH  033%=      5-min Rain = 0
KTIS 111945Z 18013G22KT 33/14 A301 RMK A01 T03270141  RH  033%=      5-min Rain = 0
KTIS 111950Z 17011G16KT 32/14 A301 RMK A01 T03230142  RH  034%=      5-min Rain = 0
KTIS 111955Z 17016G21KT 32/15 A301 RMK A01 T03240146  RH  035%=      5-min Rain = 0
KTIS 112000Z 18012G22KT 32/14 A301 RMK A01 T03170144  RH  036%=      5-min Rain = 0
KTIS 112005Z 18014G24KT 32/14 A301 RMK A01 T03240143  RH  034%=      5-min Rain = 0
KTIS 112010Z 17017G23KT 33/15 A301 RMK A01 T03280145  RH  034%=      5-min Rain = 0
KTIS 112015Z 18014G21KT 32/14 A3009 RMK A01 T03240144  RH  034%=      5-min Rain = 0
KTIS 112020Z 18018G26KT 33/14 A3009 RMK A01 T03290142  RH  033%=      5-min Rain = 0
KTIS 112025Z 17011G16KT 32/14 A3009 RMK A01 T03220141  RH  034%=      5-min Rain = 0
KTIS 112030Z 18015G20KT 32/14 A3009 RMK A01 T03230141  RH  034%=      5-min Rain = 0
KTIS 112035Z 18016G24KT 32/14 A3009 RMK A01 T03200143  RH  035%=      5-min Rain = 0
KTIS 112040Z 17016G23KT 32/15 A3008 RMK A01 T03230148  RH  035%=      5-min Rain = 0
KTIS 112045Z 16015KT 33/15 A3008 RMK A01 T03290146  RH  034%=      5-min Rain = 0
KTIS 112050Z 17012G18KT 32/14 A3008 RMK A01 T03210143  RH  035%=      5-min Rain = 0
KTIS 112055Z 20015G20KT 33/14 A3007 RMK A01 T03320139  RH  032%=      5-min Rain = 0
KTIS 112100Z 18014G19KT 33/14 A3007 RMK A01 T03320142  RH  032%=      5-min Rain = 0
KTIS 112105Z 17014G20KT 33/14 A3007 RMK A01 T03300143  RH  033%=      5-min Rain = 0
KTIS 112110Z 17012G22KT 33/15 A3007 RMK A01 T03310145  RH  033%=      5-min Rain = 0
KTIS 112115Z 18014G19KT 33/15 A3007 RMK A01 T03340145  RH  033%=      5-min Rain = 0
KTIS 112120Z 17014G20KT 33/15 A3006 RMK A01 T03270145  RH  034%=      5-min Rain = 0
KTIS 112125Z 15015G21KT 32/15 A3006 RMK A01 T03180148  RH  036%=      5-min Rain = 0
KTIS 112130Z 16014G19KT 32/15 A3006 RMK A01 T03160149  RH  037%=      5-min Rain = 0
KTIS 112135Z 16013G20KT 33/15 A3005 RMK A01 T03270149  RH  035%=      5-min Rain = 0
KTIS 112140Z 15015G21KT 33/15 A3005 RMK A01 T03340147  RH  033%=      5-min Rain = 0
KTIS 112145Z 15018G25KT 33/15 A3005 RMK A01 T03250145  RH  034%=      5-min Rain = 0
KTIS 112150Z 15016G21KT 32/14 A3005 RMK A01 T03150144  RH  036%=      5-min Rain = 0
KTIS 112155Z 17017G24KT 32/14 A3005 RMK A01 T03200141  RH  035%=      5-min Rain = 0
KTIS 112200Z 18015G20KT 33/14 A3004 RMK A01 T03310140  RH  032%=      5-min Rain = 0
KTIS 112205Z 16012G17KT 33/14 A3004 RMK A01 T03270143  RH  034%=      5-min Rain = 0
KTIS 112210Z 17015G22KT 34/14 A3004 RMK A01 T03370144  RH  032%=      5-min Rain = 0
KTIS 112215Z 16017G23KT 34/14 A3004 RMK A01 T03370142  RH  032%=      5-min Rain = 0
KTIS 112220Z 16018G23KT 34/14 A3004 RMK A01 T03360141  RH  031%=      5-min Rain = 0
KTIS 112225Z 15016G23KT 33/14 A3004 RMK A01 T03340141  RH  032%=      5-min Rain = 0
KTIS 112230Z 16015G21KT 33/14 A3004 RMK A01 T03260137  RH  032%=      5-min Rain = 0
KTIS 112235Z 17016G23KT 33/14 A3004 RMK A01 T03260136  RH  032%=      5-min Rain = 0
KTIS 112240Z 16015G20KT 33/14 A3004 RMK A01 T03250135  RH  032%=      5-min Rain = 0
KTIS 112245Z 15016G21KT 32/14 A3004 RMK A01 T03190135  RH  033%=      5-min Rain = 0
KTIS 112250Z 16015G22KT 32/14 A3004 RMK A01 T03220136  RH  033%=      5-min Rain = 0
KTIS 112255Z 15015KT 32/14 A3004 RMK A01 T03210135  RH  033%=      5-min Rain = 0
KTIS 112300Z 15015G20KT 32/14 A3004 RMK A01 T03220136  RH  033%=      5-min Rain = 0
KTIS 112305Z 15017KT 32/14 A3004 RMK A01 T03210136  RH  033%=      5-min Rain = 0
KTIS 112310Z 16016G24KT 33/14 A3004 RMK A01 T03250137  RH  033%=      5-min Rain = 0
KTIS 112315Z 17016KT 32/13 A3004 RMK A01 T03210132  RH  032%=      5-min Rain = 0
KTIS 112320Z 17016G21KT 33/13 A3004 RMK A01 T03250130  RH  031%=      5-min Rain = 0
KTIS 112325Z 17019G24KT 32/13 A3004 RMK A01 T03200129  RH  032%=      5-min Rain = 0
KTIS 112330Z 16017G24KT 32/13 A3003 RMK A01 T03230132  RH  032%=      5-min Rain = 0
KTIS 112335Z 17017G23KT 33/13 A3003 RMK A01 T03260130  RH  031%=      5-min Rain = 0
KTIS 112340Z 16017G23KT 33/13 A3003 RMK A01 T03280130  RH  031%=      5-min Rain = 0
KTIS 112345Z 16017KT 32/13 A3003 RMK A01 T03220128  RH  031%=      5-min Rain = 0
KTIS 112350Z 16016G21KT 32/13 A3003 RMK A01 T03190128  RH  032%=      5-min Rain = 0
KTIS 112355Z 16016G23KT 32/13 A3004 RMK A01 T03200128  RH  032%=      5-min Rain = 0
KTIS 120000Z 16016G21KT 32/13 A3004 RMK A01 T03190127  RH  032%=      5-min Rain = 0
KTIS 120005Z 16017G23KT 31/13 A3004 RMK A01 T03140125  RH  032%=      5-min Rain = 0
KTIS 120010Z 15017KT 31/13 A3004 RMK A01 T03120126  RH  033%=      5-min Rain = 0
KTIS 120015Z 16016G22KT 32/13 A3004 RMK A01 T03150128  RH  033%=      5-min Rain = 0
KTIS 120020Z 16015G20KT 32/13 A3004 RMK A01 T03160131  RH  033%=      5-min Rain = 0
KTIS 120025Z 16014KT 31/13 A3004 RMK A01 T03110130  RH  034%=      5-min Rain = 0
KTIS 120030Z 15013KT 31/13 A3004 RMK A01 T03080132  RH  035%=      5-min Rain = 0
KTIS 120035Z 16015KT 31/13 A3005 RMK A01 T03080132  RH  035%=      5-min Rain = 0
KTIS 120040Z 16016G21KT 31/13 A3005 RMK A01 T03110130  RH  034%=      5-min Rain = 0
KTIS 120045Z 15015KT 31/13 A3005 RMK A01 T03090131  RH  035%=      5-min Rain = 0
KTIS 120050Z 16015KT 31/13 A3005 RMK A01 T03070131  RH  035%=      5-min Rain = 0
KTIS 120055Z 15012KT 31/13 A3005 RMK A01 T03060133  RH  035%=      5-min Rain = 0
KTIS 120100Z 15012KT 31/13 A3005 RMK A01 T03050134  RH  036%=      5-min Rain = 0
KTIS 120105Z 15012KT 31/13 A3005 RMK A01 T03050134  RH  036%=      5-min Rain = 0
KTIS 120110Z 16014KT 31/13 A3005 RMK A01 T03050134  RH  036%=      5-min Rain = 0
KTIS 120115Z 16013G18KT 30/14 A3005 RMK A01 T03040135  RH  036%=      5-min Rain = 0
KTIS 120120Z 15012KT 30/14 A3005 RMK A01 T03030137  RH  037%=      5-min Rain = 0
KTIS 120125Z 15011KT 30/14 A3005 RMK A01 T03000137  RH  038%=      5-min Rain = 0
KTIS 120130Z 15012KT 30/14 A3005 RMK A01 T02990136  RH  038%=      5-min Rain = 0
KTIS 120135Z 15011KT 30/14 A3005 RMK A01 T02970136  RH  038%=      5-min Rain = 0
KTIS 120140Z 15010KT 30/14 A3005 RMK A01 T02950137  RH  039%=      5-min Rain = 0
KTIS 120145Z 15010KT 29/14 A3006 RMK A01 T02920137  RH  039%=      5-min Rain = 0
KTIS 120150Z 15010KT 29/14 A3006 RMK A01 T02910137  RH  040%=      5-min Rain = 0
KTIS 120155Z 15009KT 29/14 A3006 RMK A01 T02880138  RH  041%=      5-min Rain = 0
KTIS 120200Z 15009KT 29/14 A3006 RMK A01 T02850139  RH  042%=      5-min Rain = 0
KTIS 120205Z 15009KT 28/14 A3006 RMK A01 T02830139  RH  042%=      5-min Rain = 0
KTIS 120210Z 15008KT 28/14 A3006 RMK A01 T02800141  RH  043%=      5-min Rain = 0
KTIS 120215Z 15008KT 28/14 A3007 RMK A01 T02770142  RH  044%=      5-min Rain = 0
KTIS 120220Z 15008KT 28/14 A3007 RMK A01 T02750141  RH  045%=      5-min Rain = 0
KTIS 120225Z 14007KT 27/14 A3007 RMK A01 T02720142  RH  046%=      5-min Rain = 0
KTIS 120230Z 15008KT 27/14 A3007 RMK A01 T02680143  RH  047%=      5-min Rain = 0
KTIS 120235Z 15008KT 27/14 A3007 RMK A01 T02650143  RH  048%=      5-min Rain = 0
KTIS 120240Z 15007KT 26/14 A3008 RMK A01 T02640144  RH  049%=      5-min Rain = 0
KTIS 120245Z 16007KT 26/14 A3008 RMK A01 T02640143  RH  048%=      5-min Rain = 0
KTIS 120250Z 16008KT 26/14 A3009 RMK A01 T02620143  RH  049%=      5-min Rain = 0
KTIS 120255Z 16009G16KT 26/14 A3009 RMK A01 T02630141  RH  048%=      5-min Rain = 0
KTIS 120300Z 16008KT 27/14 A3009 RMK A01 T02650143  RH  048%=      5-min Rain = 0
KTIS 120305Z 17009KT 27/15 A3009 RMK A01 T02660146  RH  049%=      5-min Rain = 0
KTIS 120310Z 17012G17KT 27/15 A3009 RMK A01 T02680151  RH  050%=      5-min Rain = 0
KTIS 120315Z 17014G20KT 27/15 A301 RMK A01 T02700152  RH  049%=      5-min Rain = 0
KTIS 120320Z 17017G22KT 27/15 A301 RMK A01 T02700153  RH  050%=      5-min Rain = 0
KTIS 120325Z 17018G26KT 27/15 A301 RMK A01 T02690154  RH  050%=      5-min Rain = 0
KTIS 120330Z 17017G23KT 27/16 A301 RMK A01 T02690156  RH  051%=      5-min Rain = 0
KTIS 120335Z 16016KT 27/16 A301 RMK A01 T02660156  RH  052%=      5-min Rain = 0
KTIS 120340Z 16014KT 26/16 A301 RMK A01 T02640155  RH  052%=      5-min Rain = 0
KTIS 120345Z 16013KT 27/15 A301 RMK A01 T02660154  RH  051%=      5-min Rain = 0
KTIS 120350Z 15015G20KT 27/16 A301 RMK A01 T02660157  RH  052%=      5-min Rain = 0
KTIS 120355Z 15014KT 27/15 A301 RMK A01 T02740149  RH  047%=      5-min Rain = 0
KTIS 120400Z 15010KT 28/15 A301 RMK A01 T02770149  RH  047%=      5-min Rain = 0
KTIS 120405Z 15009KT 27/15 A301 RMK A01 T02740153  RH  048%=      5-min Rain = 0
KTIS 120410Z 16010KT 27/16 A301 RMK A01 T02720155  RH  050%=      5-min Rain = 0
KTIS 120415Z 16011KT 27/16 A3011 RMK A01 T02710156  RH  050%=      5-min Rain = 0
KTIS 120420Z 15013KT 27/16 A3011 RMK A01 T02670161  RH  053%=      5-min Rain = 0
KTIS 120425Z 15012KT 26/16 A3011 RMK A01 T02630162  RH  055%=      5-min Rain = 0
KTIS 120430Z 14011KT 26/17 A3011 RMK A01 T02590165  RH  057%=      5-min Rain = 0
KTIS 120435Z 14011KT 26/16 A301 RMK A01 T02580162  RH  057%=      5-min Rain = 0
KTIS 120440Z 14011KT 26/16 A301 RMK A01 T02620158  RH  054%=      5-min Rain = 0
KTIS 120445Z 14013KT 27/16 A3011 RMK A01 T02670155  RH  052%=      5-min Rain = 0
KTIS 120450Z 14013KT 27/16 A3011 RMK A01 T02680155  RH  051%=      5-min Rain = 0
KTIS 120455Z 15013KT 27/16 A3011 RMK A01 T02680155  RH  051%=      5-min Rain = 0

Page generated in 0.0094 seconds.